sensor_id;sensor_type;location;lat;lon;timestamp;temperature;humidity
1812;DHT22;904;47.814;11.134;2022-12-18T00:00:25;-1.90;87.50
1812;DHT22;904;47.814;11.134;2022-12-18T00:02:53;-2.00;87.70
1812;DHT22;904;47.814;11.134;2022-12-18T00:05:20;-2.00;88.40
1812;DHT22;904;47.814;11.134;2022-12-18T00:07:47;-2.10;88.50
1812;DHT22;904;47.814;11.134;2022-12-18T00:10:16;-2.20;88.60
1812;DHT22;904;47.814;11.134;2022-12-18T00:12:44;-2.20;88.70
1812;DHT22;904;47.814;11.134;2022-12-18T00:15:11;-2.20;88.80
1812;DHT22;904;47.814;11.134;2022-12-18T00:17:38;-2.20;88.30
1812;DHT22;904;47.814;11.134;2022-12-18T00:20:10;-2.40;88.60
1812;DHT22;904;47.814;11.134;2022-12-18T00:22:37;-2.50;89.70
1812;DHT22;904;47.814;11.134;2022-12-18T00:25:07;-2.50;89.80
1812;DHT22;904;47.814;11.134;2022-12-18T00:27:43;-2.50;90.00
1812;DHT22;904;47.814;11.134;2022-12-18T00:30:11;-2.50;89.80
1812;DHT22;904;47.814;11.134;2022-12-18T00:32:41;-2.50;89.60
1812;DHT22;904;47.814;11.134;2022-12-18T00:35:10;-2.60;90.00
1812;DHT22;904;47.814;11.134;2022-12-18T00:37:37;-2.50;90.20
1812;DHT22;904;47.814;11.134;2022-12-18T00:40:06;-2.40;90.00
1812;DHT22;904;47.814;11.134;2022-12-18T00:42:34;-2.40;90.00
1812;DHT22;904;47.814;11.134;2022-12-18T00:45:20;-2.40;89.50
1812;DHT22;904;47.814;11.134;2022-12-18T00:47:55;-2.40;89.60
1812;DHT22;904;47.814;11.134;2022-12-18T00:50:26;-2.50;90.00
1812;DHT22;904;47.814;11.134;2022-12-18T00:52:54;-2.50;90.10
1812;DHT22;904;47.814;11.134;2022-12-18T00:55:24;-2.40;90.10
1812;DHT22;904;47.814;11.134;2022-12-18T00:57:51;-2.40;90.20
1812;DHT22;904;47.814;11.134;2022-12-18T01:00:21;-2.40;90.10
1812;DHT22;904;47.814;11.134;2022-12-18T01:02:48;-2.40;90.00
1812;DHT22;904;47.814;11.134;2022-12-18T01:05:15;-2.40;90.20
1812;DHT22;904;47.814;11.134;2022-12-18T01:07:42;-2.30;90.20
1812;DHT22;904;47.814;11.134;2022-12-18T01:10:11;-2.30;90.10
1812;DHT22;904;47.814;11.134;2022-12-18T01:12:39;-2.30;89.60
1812;DHT22;904;47.814;11.134;2022-12-18T01:15:09;-2.30;89.30
1812;DHT22;904;47.814;11.134;2022-12-18T01:17:38;-2.30;89.20
1812;DHT22;904;47.814;11.134;2022-12-18T01:20:12;-2.20;88.90
1812;DHT22;904;47.814;11.134;2022-12-18T01:22:40;-2.20;88.80
1812;DHT22;904;47.814;11.134;2022-12-18T01:25:10;-2.10;88.40
1812;DHT22;904;47.814;11.134;2022-12-18T01:27:39;-2.10;88.00
1812;DHT22;904;47.814;11.134;2022-12-18T01:30:07;-2.10;87.60
1812;DHT22;904;47.814;11.134;2022-12-18T01:32:40;-2.20;87.10
1812;DHT22;904;47.814;11.134;2022-12-18T01:35:08;-2.20;87.40
1812;DHT22;904;47.814;11.134;2022-12-18T01:37:37;-2.30;87.10
1812;DHT22;904;47.814;11.134;2022-12-18T01:40:05;-2.30;87.30
1812;DHT22;904;47.814;11.134;2022-12-18T01:42:35;-2.30;86.20
1812;DHT22;904;47.814;11.134;2022-12-18T01:45:21;-2.30;85.90
1812;DHT22;904;47.814;11.134;2022-12-18T01:47:55;-2.40;85.30
1812;DHT22;904;47.814;11.134;2022-12-18T01:50:27;-2.50;85.20
1812;DHT22;904;47.814;11.134;2022-12-18T01:53:03;-2.70;85.50
1812;DHT22;904;47.814;11.134;2022-12-18T01:55:41;-2.80;86.70
1812;DHT22;904;47.814;11.134;2022-12-18T01:58:17;-2.80;87.10
1812;DHT22;904;47.814;11.134;2022-12-18T02:00:47;-2.80;87.10
1812;DHT22;904;47.814;11.134;2022-12-18T02:03:15;-2.80;87.50
1812;DHT22;904;47.814;11.134;2022-12-18T02:05:49;-2.80;87.70
1812;DHT22;904;47.814;11.134;2022-12-18T02:08:21;-2.80;88.10
1812;DHT22;904;47.814;11.134;2022-12-18T02:11:00;-2.90;88.40
1812;DHT22;904;47.814;11.134;2022-12-18T02:13:38;-2.90;88.50
1812;DHT22;904;47.814;11.134;2022-12-18T02:16:13;-2.90;89.00
1812;DHT22;904;47.814;11.134;2022-12-18T02:18:50;-2.90;89.30
1812;DHT22;904;47.814;11.134;2022-12-18T02:21:28;-2.90;89.50
1812;DHT22;904;47.814;11.134;2022-12-18T02:24:10;-2.90;89.40
1812;DHT22;904;47.814;11.134;2022-12-18T02:26:46;-2.90;89.40
1812;DHT22;904;47.814;11.134;2022-12-18T02:29:18;-2.80;89.60
1812;DHT22;904;47.814;11.134;2022-12-18T02:31:52;-2.80;89.40
1812;DHT22;904;47.814;11.134;2022-12-18T02:34:23;-2.80;89.40
1812;DHT22;904;47.814;11.134;2022-12-18T02:36:59;-2.80;89.20
1812;DHT22;904;47.814;11.134;2022-12-18T02:39:30;-2.80;89.50
1812;DHT22;904;47.814;11.134;2022-12-18T02:42:00;-2.70;90.00
1812;DHT22;904;47.814;11.134;2022-12-18T02:44:33;-2.70;88.90
1812;DHT22;904;47.814;11.134;2022-12-18T02:47:01;-2.70;88.00
1812;DHT22;904;47.814;11.134;2022-12-18T02:49:40;-2.80;87.00
1812;DHT22;904;47.814;11.134;2022-12-18T02:52:18;-2.80;86.70
1812;DHT22;904;47.814;11.134;2022-12-18T02:55:13;-2.90;86.40
1812;DHT22;904;47.814;11.134;2022-12-18T02:57:47;-3.00;85.70
1812;DHT22;904;47.814;11.134;2022-12-18T03:00:19;-3.10;85.40
1812;DHT22;904;47.814;11.134;2022-12-18T03:02:51;-3.30;86.40
1812;DHT22;904;47.814;11.134;2022-12-18T03:05:24;-3.40;86.00
1812;DHT22;904;47.814;11.134;2022-12-18T03:07:57;-3.60;87.10
1812;DHT22;904;47.814;11.134;2022-12-18T03:10:37;-3.70;88.30
1812;DHT22;904;47.814;11.134;2022-12-18T03:13:13;-3.80;89.30
1812;DHT22;904;47.814;11.134;2022-12-18T03:15:47;-3.90;89.80
1812;DHT22;904;47.814;11.134;2022-12-18T03:18:18;-4.00;90.50
1812;DHT22;904;47.814;11.134;2022-12-18T03:20:48;-3.90;90.70
1812;DHT22;904;47.814;11.134;2022-12-18T03:23:20;-3.90;90.70
1812;DHT22;904;47.814;11.134;2022-12-18T03:25:51;-4.00;91.00
1812;DHT22;904;47.814;11.134;2022-12-18T03:28:22;-4.10;91.50
1812;DHT22;904;47.814;11.134;2022-12-18T03:30:54;-4.30;91.80
1812;DHT22;904;47.814;11.134;2022-12-18T03:33:26;-4.50;92.30
1812;DHT22;904;47.814;11.134;2022-12-18T03:35:56;-4.60;92.80
1812;DHT22;904;47.814;11.134;2022-12-18T03:38:23;-4.60;93.20
1812;DHT22;904;47.814;11.134;2022-12-18T03:40:57;-4.60;93.40
1812;DHT22;904;47.814;11.134;2022-12-18T03:43:49;-4.60;93.30
1812;DHT22;904;47.814;11.134;2022-12-18T03:46:28;-4.60;93.30
1812;DHT22;904;47.814;11.134;2022-12-18T03:49:09;-4.60;93.20
1812;DHT22;904;47.814;11.134;2022-12-18T03:51:49;-4.60;93.00
1812;DHT22;904;47.814;11.134;2022-12-18T03:54:25;-4.60;93.10
1812;DHT22;904;47.814;11.134;2022-12-18T03:56:57;-4.60;92.90
1812;DHT22;904;47.814;11.134;2022-12-18T03:59:28;-4.50;92.70
1812;DHT22;904;47.814;11.134;2022-12-18T04:01:59;-4.50;92.20
1812;DHT22;904;47.814;11.134;2022-12-18T04:04:29;-4.50;91.90
1812;DHT22;904;47.814;11.134;2022-12-18T04:06:58;-4.50;91.80
1812;DHT22;904;47.814;11.134;2022-12-18T04:09:26;-4.60;91.70
1812;DHT22;904;47.814;11.134;2022-12-18T04:11:54;-4.60;91.60
1812;DHT22;904;47.814;11.134;2022-12-18T04:14:22;-4.60;91.70
1812;DHT22;904;47.814;11.134;2022-12-18T04:16:57;-4.50;91.60
1812;DHT22;904;47.814;11.134;2022-12-18T04:19:24;-4.50;91.30
1812;DHT22;904;47.814;11.134;2022-12-18T04:21:52;-4.40;91.20
1812;DHT22;904;47.814;11.134;2022-12-18T04:24:23;-4.40;91.10
1812;DHT22;904;47.814;11.134;2022-12-18T04:26:54;-4.30;90.80
1812;DHT22;904;47.814;11.134;2022-12-18T04:29:21;-4.30;90.60
1812;DHT22;904;47.814;11.134;2022-12-18T04:31:50;-4.30;90.50
1812;DHT22;904;47.814;11.134;2022-12-18T04:34:20;-4.30;90.50
1812;DHT22;904;47.814;11.134;2022-12-18T04:36:53;-4.20;90.50
1812;DHT22;904;47.814;11.134;2022-12-18T04:39:21;-4.10;90.40
1812;DHT22;904;47.814;11.134;2022-12-18T04:41:49;-4.10;90.40
1812;DHT22;904;47.814;11.134;2022-12-18T04:44:16;-4.10;90.20
1812;DHT22;904;47.814;11.134;2022-12-18T04:46:44;-4.10;90.10
1812;DHT22;904;47.814;11.134;2022-12-18T04:49:11;-4.10;90.00
1812;DHT22;904;47.814;11.134;2022-12-18T04:51:41;-4.10;89.80
1812;DHT22;904;47.814;11.134;2022-12-18T04:54:11;-4.00;89.80
1812;DHT22;904;47.814;11.134;2022-12-18T04:56:38;-4.10;89.60
1812;DHT22;904;47.814;11.134;2022-12-18T04:59:06;-4.10;89.80
1812;DHT22;904;47.814;11.134;2022-12-18T05:01:35;-4.10;90.00
1812;DHT22;904;47.814;11.134;2022-12-18T05:04:02;-4.00;89.80
1812;DHT22;904;47.814;11.134;2022-12-18T05:06:30;-4.00;89.50
1812;DHT22;904;47.814;11.134;2022-12-18T05:08:59;-4.00;89.10
1812;DHT22;904;47.814;11.134;2022-12-18T05:11:27;-4.00;89.20
1812;DHT22;904;47.814;11.134;2022-12-18T05:13:54;-3.90;88.90
1812;DHT22;904;47.814;11.134;2022-12-18T05:16:22;-4.00;88.80
1812;DHT22;904;47.814;11.134;2022-12-18T05:18:49;-4.00;89.60
1812;DHT22;904;47.814;11.134;2022-12-18T05:21:21;-4.00;89.90
1812;DHT22;904;47.814;11.134;2022-12-18T05:23:49;-3.90;90.10
1812;DHT22;904;47.814;11.134;2022-12-18T05:26:19;-3.90;90.10
1812;DHT22;904;47.814;11.134;2022-12-18T05:28:49;-3.80;90.00
1812;DHT22;904;47.814;11.134;2022-12-18T05:31:19;-3.80;89.60
1812;DHT22;904;47.814;11.134;2022-12-18T05:33:50;-3.80;89.40
1812;DHT22;904;47.814;11.134;2022-12-18T05:36:18;-3.80;89.00
1812;DHT22;904;47.814;11.134;2022-12-18T05:38:45;-3.80;89.60
1812;DHT22;904;47.814;11.134;2022-12-18T05:41:13;-3.80;88.50
1812;DHT22;904;47.814;11.134;2022-12-18T05:43:42;-3.80;88.40
1812;DHT22;904;47.814;11.134;2022-12-18T05:46:12;-3.80;88.80
1812;DHT22;904;47.814;11.134;2022-12-18T05:48:40;-3.80;89.40
1812;DHT22;904;47.814;11.134;2022-12-18T05:51:08;-3.70;89.40
1812;DHT22;904;47.814;11.134;2022-12-18T05:53:39;-3.70;89.10
1812;DHT22;904;47.814;11.134;2022-12-18T05:56:08;-3.70;88.60
1812;DHT22;904;47.814;11.134;2022-12-18T05:58:38;-3.70;88.30
1812;DHT22;904;47.814;11.134;2022-12-18T06:01:08;-3.80;87.60
1812;DHT22;904;47.814;11.134;2022-12-18T06:03:36;-3.80;87.50
1812;DHT22;904;47.814;11.134;2022-12-18T06:06:11;-3.90;87.80
1812;DHT22;904;47.814;11.134;2022-12-18T06:08:39;-3.90;88.50
1812;DHT22;904;47.814;11.134;2022-12-18T06:11:06;-3.90;88.30
1812;DHT22;904;47.814;11.134;2022-12-18T06:13:34;-3.80;89.00
1812;DHT22;904;47.814;11.134;2022-12-18T06:16:02;-3.80;90.00
1812;DHT22;904;47.814;11.134;2022-12-18T06:18:34;-3.90;89.20
1812;DHT22;904;47.814;11.134;2022-12-18T06:21:02;-3.90;88.80
1812;DHT22;904;47.814;11.134;2022-12-18T06:23:29;-4.00;89.90
1812;DHT22;904;47.814;11.134;2022-12-18T06:25:57;-3.90;90.10
1812;DHT22;904;47.814;11.134;2022-12-18T06:28:24;-4.00;90.00
1812;DHT22;904;47.814;11.134;2022-12-18T06:30:52;-4.00;90.30
1812;DHT22;904;47.814;11.134;2022-12-18T06:33:19;-3.90;90.40
1812;DHT22;904;47.814;11.134;2022-12-18T06:35:48;-3.90;90.30
1812;DHT22;904;47.814;11.134;2022-12-18T06:38:16;-3.80;90.00
1812;DHT22;904;47.814;11.134;2022-12-18T06:40:56;-3.90;89.40
1812;DHT22;904;47.814;11.134;2022-12-18T06:43:27;-3.80;89.50
1812;DHT22;904;47.814;11.134;2022-12-18T06:45:59;-3.90;90.00
1812;DHT22;904;47.814;11.134;2022-12-18T06:48:26;-3.80;90.10
1812;DHT22;904;47.814;11.134;2022-12-18T06:50:55;-3.80;90.10
1812;DHT22;904;47.814;11.134;2022-12-18T06:53:28;-3.80;90.00
1812;DHT22;904;47.814;11.134;2022-12-18T06:56:00;-3.70;90.10
1812;DHT22;904;47.814;11.134;2022-12-18T06:58:28;-3.70;89.80
1812;DHT22;904;47.814;11.134;2022-12-18T07:01:00;-3.60;90.00
1812;DHT22;904;47.814;11.134;2022-12-18T07:03:28;-3.60;90.10
1812;DHT22;904;47.814;11.134;2022-12-18T07:05:57;-3.50;89.70
1812;DHT22;904;47.814;11.134;2022-12-18T07:08:24;-3.50;89.50
1812;DHT22;904;47.814;11.134;2022-12-18T07:10:52;-3.40;89.50
1812;DHT22;904;47.814;11.134;2022-12-18T07:13:19;-3.40;89.60
1812;DHT22;904;47.814;11.134;2022-12-18T07:15:47;-3.30;89.40
1812;DHT22;904;47.814;11.134;2022-12-18T07:18:15;-3.30;89.40
1812;DHT22;904;47.814;11.134;2022-12-18T07:20:47;-3.30;87.90
1812;DHT22;904;47.814;11.134;2022-12-18T07:23:21;-3.40;87.70
1812;DHT22;904;47.814;11.134;2022-12-18T07:25:49;-3.30;88.70
1812;DHT22;904;47.814;11.134;2022-12-18T07:28:16;-3.30;88.70
1812;DHT22;904;47.814;11.134;2022-12-18T07:30:44;-3.30;88.30
1812;DHT22;904;47.814;11.134;2022-12-18T07:33:12;-3.20;88.30
1812;DHT22;904;47.814;11.134;2022-12-18T07:35:44;-3.10;88.30
1812;DHT22;904;47.814;11.134;2022-12-18T07:38:16;-3.00;89.00
1812;DHT22;904;47.814;11.134;2022-12-18T07:40:51;-3.00;89.00
1812;DHT22;904;47.814;11.134;2022-12-18T07:43:19;-2.90;88.80
1812;DHT22;904;47.814;11.134;2022-12-18T07:45:49;-2.80;88.20
1812;DHT22;904;47.814;11.134;2022-12-18T07:48:17;-2.80;86.70
1812;DHT22;904;47.814;11.134;2022-12-18T07:50:46;-2.90;86.30
1812;DHT22;904;47.814;11.134;2022-12-18T07:53:14;-2.90;87.10
1812;DHT22;904;47.814;11.134;2022-12-18T07:55:46;-2.80;87.50
1812;DHT22;904;47.814;11.134;2022-12-18T07:58:19;-2.70;87.80
1812;DHT22;904;47.814;11.134;2022-12-18T08:00:46;-2.60;87.90
1812;DHT22;904;47.814;11.134;2022-12-18T08:03:16;-2.60;87.30
1812;DHT22;904;47.814;11.134;2022-12-18T08:05:44;-2.50;87.10
1812;DHT22;904;47.814;11.134;2022-12-18T08:08:19;-2.50;86.70
1812;DHT22;904;47.814;11.134;2022-12-18T08:10:48;-2.40;86.80
1812;DHT22;904;47.814;11.134;2022-12-18T08:13:20;-2.40;86.60
1812;DHT22;904;47.814;11.134;2022-12-18T08:15:56;-2.30;86.30
1812;DHT22;904;47.814;11.134;2022-12-18T08:18:39;-2.30;85.90
1812;DHT22;904;47.814;11.134;2022-12-18T08:21:13;-2.30;84.90
1812;DHT22;904;47.814;11.134;2022-12-18T08:23:41;-2.20;85.20
1812;DHT22;904;47.814;11.134;2022-12-18T08:26:13;-2.20;85.50
1812;DHT22;904;47.814;11.134;2022-12-18T08:28:48;-2.10;85.60
1812;DHT22;904;47.814;11.134;2022-12-18T08:31:18;-2.10;85.10
1812;DHT22;904;47.814;11.134;2022-12-18T08:33:48;-2.00;85.70
1812;DHT22;904;47.814;11.134;2022-12-18T08:36:15;-2.00;84.40
1812;DHT22;904;47.814;11.134;2022-12-18T08:38:43;-1.90;84.10
1812;DHT22;904;47.814;11.134;2022-12-18T08:41:15;-1.90;84.50
1812;DHT22;904;47.814;11.134;2022-12-18T08:43:50;-1.80;84.50
1812;DHT22;904;47.814;11.134;2022-12-18T08:46:36;-1.80;83.90
1812;DHT22;904;47.814;11.134;2022-12-18T08:49:05;-1.70;84.00
1812;DHT22;904;47.814;11.134;2022-12-18T08:51:33;-1.60;84.70
1812;DHT22;904;47.814;11.134;2022-12-18T08:54:01;-1.60;83.40
1812;DHT22;904;47.814;11.134;2022-12-18T08:56:28;-1.70;82.80
1812;DHT22;904;47.814;11.134;2022-12-18T08:58:58;-1.60;82.00
1812;DHT22;904;47.814;11.134;2022-12-18T09:01:25;-1.60;82.20
1812;DHT22;904;47.814;11.134;2022-12-18T09:03:58;-1.50;82.80
1812;DHT22;904;47.814;11.134;2022-12-18T09:06:27;-1.50;82.30
1812;DHT22;904;47.814;11.134;2022-12-18T09:08:54;-1.50;82.10
1812;DHT22;904;47.814;11.134;2022-12-18T09:11:24;-1.40;83.20
1812;DHT22;904;47.814;11.134;2022-12-18T09:13:52;-1.30;82.40
1812;DHT22;904;47.814;11.134;2022-12-18T09:16:21;-1.20;82.00
1812;DHT22;904;47.814;11.134;2022-12-18T09:18:49;-1.10;82.30
1812;DHT22;904;47.814;11.134;2022-12-18T09:21:18;-1.10;81.60
1812;DHT22;904;47.814;11.134;2022-12-18T09:23:49;-1.20;79.40
1812;DHT22;904;47.814;11.134;2022-12-18T09:26:17;-1.20;80.00
1812;DHT22;904;47.814;11.134;2022-12-18T09:28:44;-1.10;79.60
1812;DHT22;904;47.814;11.134;2022-12-18T09:31:12;-1.10;79.00
1812;DHT22;904;47.814;11.134;2022-12-18T09:33:41;-1.20;78.10
1812;DHT22;904;47.814;11.134;2022-12-18T09:36:13;-1.10;79.30
1812;DHT22;904;47.814;11.134;2022-12-18T09:38:46;-1.20;78.40
1812;DHT22;904;47.814;11.134;2022-12-18T09:41:37;-1.20;78.00
1812;DHT22;904;47.814;11.134;2022-12-18T09:44:19;-1.10;78.80
1812;DHT22;904;47.814;11.134;2022-12-18T09:46:51;-1.00;79.40
1812;DHT22;904;47.814;11.134;2022-12-18T09:49:23;-0.90;78.80
1812;DHT22;904;47.814;11.134;2022-12-18T09:51:55;-0.90;77.40
1812;DHT22;904;47.814;11.134;2022-12-18T09:54:25;-0.90;77.10
1812;DHT22;904;47.814;11.134;2022-12-18T09:56:52;-0.90;76.80
1812;DHT22;904;47.814;11.134;2022-12-18T09:59:24;-0.90;77.10
1812;DHT22;904;47.814;11.134;2022-12-18T10:01:52;-0.90;76.10
1812;DHT22;904;47.814;11.134;2022-12-18T10:04:21;-0.90;77.60
1812;DHT22;904;47.814;11.134;2022-12-18T10:06:54;-0.90;75.60
1812;DHT22;904;47.814;11.134;2022-12-18T10:09:31;-0.90;77.20
1812;DHT22;904;47.814;11.134;2022-12-18T10:12:07;-0.90;76.90
1812;DHT22;904;47.814;11.134;2022-12-18T10:14:42;-0.90;77.10
1812;DHT22;904;47.814;11.134;2022-12-18T10:17:18;-0.80;76.10
1812;DHT22;904;47.814;11.134;2022-12-18T10:19:52;-0.80;77.50
1812;DHT22;904;47.814;11.134;2022-12-18T10:22:45;-0.80;77.30
1812;DHT22;904;47.814;11.134;2022-12-18T10:25:23;-0.80;75.70
1812;DHT22;904;47.814;11.134;2022-12-18T10:27:55;-0.80;76.10
1812;DHT22;904;47.814;11.134;2022-12-18T10:30:24;-0.70;77.10
1812;DHT22;904;47.814;11.134;2022-12-18T10:32:54;-0.70;77.20
1812;DHT22;904;47.814;11.134;2022-12-18T10:35:25;-0.60;77.90
1812;DHT22;904;47.814;11.134;2022-12-18T10:38:07;-0.50;77.30
1812;DHT22;904;47.814;11.134;2022-12-18T10:40:48;-0.60;76.40
1812;DHT22;904;47.814;11.134;2022-12-18T10:43:21;-0.60;77.50
1812;DHT22;904;47.814;11.134;2022-12-18T10:46:01;-0.50;76.00
1812;DHT22;904;47.814;11.134;2022-12-18T10:48:30;-0.40;74.80
1812;DHT22;904;47.814;11.134;2022-12-18T10:51:00;-0.30;75.30
1812;DHT22;904;47.814;11.134;2022-12-18T10:53:29;-0.20;73.90
1812;DHT22;904;47.814;11.134;2022-12-18T10:55:58;-0.40;73.20
1812;DHT22;904;47.814;11.134;2022-12-18T10:58:28;-0.60;72.80
1812;DHT22;904;47.814;11.134;2022-12-18T11:01:08;-0.70;74.00
1812;DHT22;904;47.814;11.134;2022-12-18T11:03:37;-0.80;73.90
1812;DHT22;904;47.814;11.134;2022-12-18T11:06:09;-0.90;74.10
1812;DHT22;904;47.814;11.134;2022-12-18T11:08:38;-0.90;74.50
1812;DHT22;904;47.814;11.134;2022-12-18T11:11:17;-0.90;74.20
1812;DHT22;904;47.814;11.134;2022-12-18T11:13:55;-0.80;75.30
1812;DHT22;904;47.814;11.134;2022-12-18T11:16:25;-0.80;74.70
1812;DHT22;904;47.814;11.134;2022-12-18T11:18:53;-0.80;74.20
1812;DHT22;904;47.814;11.134;2022-12-18T11:21:23;-0.80;73.70
1812;DHT22;904;47.814;11.134;2022-12-18T11:23:52;-0.80;74.30
1812;DHT22;904;47.814;11.134;2022-12-18T11:26:20;-0.70;73.70
1812;DHT22;904;47.814;11.134;2022-12-18T11:28:51;-0.80;73.30
1812;DHT22;904;47.814;11.134;2022-12-18T11:31:26;-0.70;73.90
1812;DHT22;904;47.814;11.134;2022-12-18T11:34:00;-0.60;74.80
1812;DHT22;904;47.814;11.134;2022-12-18T11:36:33;-0.30;76.30
1812;DHT22;904;47.814;11.134;2022-12-18T11:39:09;-0.20;75.00
1812;DHT22;904;47.814;11.134;2022-12-18T11:41:46;-0.10;73.60
1812;DHT22;904;47.814;11.134;2022-12-18T11:44:38;0.00;74.00
1812;DHT22;904;47.814;11.134;2022-12-18T11:47:12;0.10;73.40
1812;DHT22;904;47.814;11.134;2022-12-18T11:49:49;0.10;71.60
1812;DHT22;904;47.814;11.134;2022-12-18T11:52:21;0.10;71.30
1812;DHT22;904;47.814;11.134;2022-12-18T11:54:51;0.10;71.40
1812;DHT22;904;47.814;11.134;2022-12-18T11:57:30;0.20;72.00
1812;DHT22;904;47.814;11.134;2022-12-18T12:00:07;0.30;72.50
1812;DHT22;904;47.814;11.134;2022-12-18T12:05:37;0.50;69.90
1812;DHT22;904;47.814;11.134;2022-12-18T12:08:17;0.30;68.10
1812;DHT22;904;47.814;11.134;2022-12-18T12:11:05;0.20;69.60
1812;DHT22;904;47.814;11.134;2022-12-18T12:13:43;0.20;68.90
1812;DHT22;904;47.814;11.134;2022-12-18T12:16:17;0.30;69.60
1812;DHT22;904;47.814;11.134;2022-12-18T12:19:00;0.30;70.50
1812;DHT22;904;47.814;11.134;2022-12-18T12:21:40;0.40;71.00
1812;DHT22;904;47.814;11.134;2022-12-18T12:24:27;0.40;69.90
1812;DHT22;904;47.814;11.134;2022-12-18T12:27:02;0.40;70.40
1812;DHT22;904;47.814;11.134;2022-12-18T12:29:40;0.40;70.80
1812;DHT22;904;47.814;11.134;2022-12-18T12:32:22;0.50;70.50
1812;DHT22;904;47.814;11.134;2022-12-18T12:35:03;0.50;70.20
1812;DHT22;904;47.814;11.134;2022-12-18T12:37:46;0.40;69.80
1812;DHT22;904;47.814;11.134;2022-12-18T12:40:18;0.40;69.80
1812;DHT22;904;47.814;11.134;2022-12-18T12:42:50;0.40;70.40
1812;DHT22;904;47.814;11.134;2022-12-18T12:45:37;0.40;70.70
1812;DHT22;904;47.814;11.134;2022-12-18T12:48:11;0.40;70.80
1812;DHT22;904;47.814;11.134;2022-12-18T12:50:44;0.50;71.00
1812;DHT22;904;47.814;11.134;2022-12-18T12:53:19;0.50;71.10
1812;DHT22;904;47.814;11.134;2022-12-18T12:55:50;0.50;71.50
1812;DHT22;904;47.814;11.134;2022-12-18T12:58:23;0.40;69.60
1812;DHT22;904;47.814;11.134;2022-12-18T13:00:59;0.30;70.00
1812;DHT22;904;47.814;11.134;2022-12-18T13:03:35;0.20;70.20
1812;DHT22;904;47.814;11.134;2022-12-18T13:06:09;0.10;70.50
1812;DHT22;904;47.814;11.134;2022-12-18T13:08:53;0.10;70.60
1812;DHT22;904;47.814;11.134;2022-12-18T13:11:31;0.10;71.30
1812;DHT22;904;47.814;11.134;2022-12-18T13:14:24;0.00;71.00
1812;DHT22;904;47.814;11.134;2022-12-18T13:17:22;0.10;71.60
1812;DHT22;904;47.814;11.134;2022-12-18T13:20:07;0.00;70.90
1812;DHT22;904;47.814;11.134;2022-12-18T13:22:38;0.00;70.40
1812;DHT22;904;47.814;11.134;2022-12-18T13:25:30;0.00;71.30
1812;DHT22;904;47.814;11.134;2022-12-18T13:28:03;0.00;71.40
1812;DHT22;904;47.814;11.134;2022-12-18T13:30:54;-0.10;70.50
1812;DHT22;904;47.814;11.134;2022-12-18T13:33:42;-0.10;71.80
1812;DHT22;904;47.814;11.134;2022-12-18T13:36:14;-0.20;71.40
1812;DHT22;904;47.814;11.134;2022-12-18T13:38:44;-0.20;72.00
1812;DHT22;904;47.814;11.134;2022-12-18T13:41:26;-0.30;71.70
1812;DHT22;904;47.814;11.134;2022-12-18T13:43:55;-0.30;72.20
1812;DHT22;904;47.814;11.134;2022-12-18T13:46:27;-0.40;72.60
1812;DHT22;904;47.814;11.134;2022-12-18T13:48:57;-0.40;72.70
1812;DHT22;904;47.814;11.134;2022-12-18T13:51:26;-0.40;72.00
1812;DHT22;904;47.814;11.134;2022-12-18T13:53:57;-0.50;72.50
1812;DHT22;904;47.814;11.134;2022-12-18T13:56:30;-0.60;72.00
1812;DHT22;904;47.814;11.134;2022-12-18T13:59:09;-0.70;71.70
1812;DHT22;904;47.814;11.134;2022-12-18T14:01:42;-0.70;73.30
1812;DHT22;904;47.814;11.134;2022-12-18T14:04:16;-0.80;72.40
1812;DHT22;904;47.814;11.134;2022-12-18T14:06:45;-1.00;72.90
1812;DHT22;904;47.814;11.134;2022-12-18T14:09:14;-0.90;73.40
1812;DHT22;904;47.814;11.134;2022-12-18T14:11:46;-0.90;73.60
1812;DHT22;904;47.814;11.134;2022-12-18T14:14:19;-1.00;74.20
1812;DHT22;904;47.814;11.134;2022-12-18T14:16:47;-1.00;74.70
1812;DHT22;904;47.814;11.134;2022-12-18T14:19:16;-0.90;75.20
1812;DHT22;904;47.814;11.134;2022-12-18T14:21:46;-0.90;75.00
1812;DHT22;904;47.814;11.134;2022-12-18T14:24:15;-1.10;74.60
1812;DHT22;904;47.814;11.134;2022-12-18T14:26:43;-1.30;75.10
1812;DHT22;904;47.814;11.134;2022-12-18T14:29:26;-1.40;76.40
1812;DHT22;904;47.814;11.134;2022-12-18T14:32:14;-1.40;77.00
1812;DHT22;904;47.814;11.134;2022-12-18T14:34:43;-1.40;77.30
1812;DHT22;904;47.814;11.134;2022-12-18T14:37:11;-1.40;77.70
1812;DHT22;904;47.814;11.134;2022-12-18T14:39:39;-1.40;78.60
1812;DHT22;904;47.814;11.134;2022-12-18T14:42:10;-1.30;77.70
1812;DHT22;904;47.814;11.134;2022-12-18T14:44:38;-1.30;78.40
1812;DHT22;904;47.814;11.134;2022-12-18T14:47:12;-1.30;77.90
1812;DHT22;904;47.814;11.134;2022-12-18T14:49:42;-1.30;76.90
1812;DHT22;904;47.814;11.134;2022-12-18T14:52:26;-1.30;76.20
1812;DHT22;904;47.814;11.134;2022-12-18T14:54:54;-1.40;76.60
1812;DHT22;904;47.814;11.134;2022-12-18T14:57:22;-1.40;77.00
1812;DHT22;904;47.814;11.134;2022-12-18T14:59:51;-1.40;77.40
1812;DHT22;904;47.814;11.134;2022-12-18T15:02:21;-1.40;77.60
1812;DHT22;904;47.814;11.134;2022-12-18T15:05:00;-1.30;77.70
1812;DHT22;904;47.814;11.134;2022-12-18T15:07:40;-1.30;77.60
1812;DHT22;904;47.814;11.134;2022-12-18T15:10:12;-1.30;77.70
1812;DHT22;904;47.814;11.134;2022-12-18T15:12:41;-1.30;77.60
1812;DHT22;904;47.814;11.134;2022-12-18T15:15:48;-1.30;77.50
1812;DHT22;904;47.814;11.134;2022-12-18T15:18:23;-1.30;77.30
1812;DHT22;904;47.814;11.134;2022-12-18T15:20:56;-1.30;77.10
1812;DHT22;904;47.814;11.134;2022-12-18T15:23:27;-1.30;77.20
1812;DHT22;904;47.814;11.134;2022-12-18T15:25:57;-1.40;77.10
1812;DHT22;904;47.814;11.134;2022-12-18T15:28:26;-1.40;77.10
1812;DHT22;904;47.814;11.134;2022-12-18T15:31:01;-1.40;77.20
1812;DHT22;904;47.814;11.134;2022-12-18T15:33:32;-1.40;77.00
1812;DHT22;904;47.814;11.134;2022-12-18T15:36:02;-1.40;77.20
1812;DHT22;904;47.814;11.134;2022-12-18T15:38:30;-1.50;76.90
1812;DHT22;904;47.814;11.134;2022-12-18T15:40:59;-1.50;77.10
1812;DHT22;904;47.814;11.134;2022-12-18T15:43:38;-1.60;77.00
1812;DHT22;904;47.814;11.134;2022-12-18T15:46:08;-1.60;77.20
1812;DHT22;904;47.814;11.134;2022-12-18T15:48:38;-1.60;77.30
1812;DHT22;904;47.814;11.134;2022-12-18T15:51:11;-1.70;77.40
1812;DHT22;904;47.814;11.134;2022-12-18T15:53:38;-1.70;77.70
1812;DHT22;904;47.814;11.134;2022-12-18T15:56:09;-1.70;77.80
1812;DHT22;904;47.814;11.134;2022-12-18T15:58:54;-1.70;77.90
1812;DHT22;904;47.814;11.134;2022-12-18T16:01:24;-1.70;78.10
1812;DHT22;904;47.814;11.134;2022-12-18T16:03:54;-1.70;78.00
1812;DHT22;904;47.814;11.134;2022-12-18T16:06:22;-1.70;78.20
1812;DHT22;904;47.814;11.134;2022-12-18T16:08:54;-1.90;77.90
1812;DHT22;904;47.814;11.134;2022-12-18T16:11:24;-1.90;79.00
1812;DHT22;904;47.814;11.134;2022-12-18T16:14:05;-2.00;79.60
1812;DHT22;904;47.814;11.134;2022-12-18T16:16:33;-2.00;79.60
1812;DHT22;904;47.814;11.134;2022-12-18T16:19:03;-2.10;79.80
1812;DHT22;904;47.814;11.134;2022-12-18T16:21:30;-2.10;80.50
1812;DHT22;904;47.814;11.134;2022-12-18T16:24:00;-2.10;80.40
1812;DHT22;904;47.814;11.134;2022-12-18T16:26:30;-2.20;80.40
1812;DHT22;904;47.814;11.134;2022-12-18T16:28:57;-2.30;80.70
1812;DHT22;904;47.814;11.134;2022-12-18T16:31:28;-2.40;81.30
1812;DHT22;904;47.814;11.134;2022-12-18T16:36:58;-2.50;81.80
1812;DHT22;904;47.814;11.134;2022-12-18T16:39:26;-2.60;83.60